Terminal Aerodrome Forecast
Issued by NWS

Current Version | Previous Version | Text Only | Print | Product List | Glossary Off
Versions: 1 2 3 4 5 6 7 8 9 10 11 12 13 14 15 16 17 18 19 20 21 22 23 24 25 26 27

000
FTUS41 KILN 240400 AAC
TAFLUK
TAF AMD
KLUK 240439Z 2405/2424 18015G25KT P6SM VCSH SCT015 OVC025
      TEMPO 2405/2409 4SM -SHRA OVC015
     FM241200 21018G32KT 5SM -SHRA BR SCT015 OVC025
     FM241600 24024G38KT 5SM -SHRA BR SCT015 OVC025
     FM241800 24020G32KT P6SM BKN028=

USA.gov is the U.S. government's official web portal to all federal, state and local government web resources and services.